logo
Search for airport 
image banner adimage banner adimage banner ad
image banner ad

EHPG - P11-B / De Ruyter (Oil Platform)

Located in , Netherlands

ICAO - , IATA -

Data provided by Airmate  

General information

Coordinates: N52°21'36" E3°20'31"
Elevation is feet MSL.
 
View others Airports in Noord-Holland

Operational data

Special qualification required
Current time UTC:
Current local time:
Weather
METAR: EHPG 152025Z AUTO 06013KT 9999 // NSC 18/14 Q1007 RE//
View NOTAMs / SUP AIP / TFR affecting this airport [VIEW]
Communications frequencies: [VIEW]

Runways:

Airport contact information

Address: Netherlands

Satellite view of EHPG